Vlieland — PBFD — position and weather

sailwx.info

Track history (hours):
 
Tides and Currents Weather Stations Pressure Air Temp Water Temp Dewpoint Dewpoint Depression Visibility Wind Speed Wind Dir Waves Ship Positions

Vlieland

Last reported at 2017-Dec-11 17:00 UTC. Time now 2017-Dec-12 17:37 UTC.
Position N 50°42' W 005°51'.

Length 111 m; draft 4.3 m.

Type: Ship. MMSI: 244376000.

Date/timePositionNaut miles runAvg speedWind from/ knotsBaromVisibWave heightAir tempDewpointWater temp
2017-Dec-11 17:00N 50°42' W 005°51'5 9.3
2017-Dec-11 16:27N 50°36' W 005°52'13 8.5
2017-Dec-11 14:53N 50°23' W 005°52'3 7.6
2017-Dec-11 14:28N 50°20' W 005°53'4 7.4
2017-Dec-11 14:00N 50°17' W 005°54'13 5.9
2017-Dec-11 11:52N 50°04' W 005°53'30 8.3
2017-Dec-11 08:14N 49°54' W 005°08'1410.1
2017-Dec-11 06:52N 49°56' W 004°47'510.4
2017-Dec-11 06:23N 49°58' W 004°39'410.4
2017-Dec-11 06:00N 49°59' W 004°33'510.5
2017-Dec-11 05:30N 49°60' W 004°25'510.7
2017-Dec-11 05:00N 50°01' W 004°17'1110.8
2017-Dec-11 04:00N 50°03' W 004°01'710.7
2017-Dec-11 03:21N 50°04' W 003°50'410.3
2017-Dec-11 03:01N 50°05' W 003°45'5 9.9
2017-Dec-11 02:31N 50°06' W 003°37'5 9.7
2017-Dec-11 02:00N 50°07' W 003°30'5 9.5
2017-Dec-11 01:30N 50°08' W 003°23'5 9.4
2017-Dec-11 01:00N 50°09' W 003°15'5 9.1
2017-Dec-11 00:31N 50°10' W 003°08'5 9.1
2017-Dec-11 00:00N 50°11' W 003°01'5 9.1
2017-Dec-10 23:30N 50°12' W 002°54'5 9.2
2017-Dec-10 23:00N 50°13' W 002°47'5 9.5
2017-Dec-10 22:28N 50°14' W 002°40'5 9.8
2017-Dec-10 21:55N 50°15' W 002°31'410.2
2017-Dec-10 21:30N 50°15' W 002°25'2510.9
2017-Dec-10 19:15N 50°21' W 001°47'1911.1
2017-Dec-10 17:32N 50°24' W 001°18'15 8.1
2017-Dec-10 15:38N 50°28' W 000°54'2 6.2
2017-Dec-10 15:20N 50°28' W 000°52'6 4.9
2017-Dec-10 14:04N 50°30' W 000°42'3 2.6
2017-Dec-10 13:04N 50°30' W 000°38'0 1.1
2017-Dec-10 12:43N 50°30' W 000°37'0 0.6
2017-Dec-10 12:17N 50°30' W 000°37'1 2.4
2017-Dec-10 11:59N 50°31' W 000°38'2 3.5
2017-Dec-10 11:27N 50°29' W 000°39'1 1.1
2017-Dec-10 10:40N 50°28' W 000°38'0 2.2
2017-Dec-10 10:26N 50°28' W 000°38'1 2.4
2017-Dec-10 09:56N 50°28' W 000°36'2 3.6
2017-Dec-10 09:30N 50°29' W 000°33'3 6.2
2017-Dec-10 09:00N 50°29' W 000°29'4 8.7
2017-Dec-10 08:30N 50°30' W 000°22'5 9.4
2017-Dec-10 08:00N 50°31' W 000°15'510.1
2017-Dec-10 07:30N 50°32' W 000°07'510.8
2017-Dec-10 07:00N 50°33' E 000°01'611.0
2017-Dec-10 06:30N 50°35' E 000°10'611.1
2017-Dec-10 06:00N 50°36' E 000°18'611.0
2017-Dec-10 05:30N 50°38' E 000°26'510.9
2017-Dec-10 05:00N 50°39' E 000°35'510.3
2017-Dec-10 04:30N 50°42' E 000°41'510.3
2017-Dec-10 04:00N 50°45' E 000°48'510.2
2017-Dec-10 03:30N 50°48' E 000°55'510.4
2017-Dec-10 03:00N 50°51' E 001°01'611.3
2017-Dec-10 02:29N 50°55' E 001°09'611.8
2017-Dec-10 02:00N 50°58' E 001°16'612.9
2017-Dec-10 01:30N 51°02' E 001°23'714.2
2017-Dec-10 01:00N 51°07' E 001°32'714.8
2017-Dec-10 00:31N 51°12' E 001°41'714.2
2017-Dec-10 00:01N 51°17' E 001°49'713.5
2017-Dec-09 23:31N 51°22' E 001°56'510.4
2017-Dec-09 23:01N 51°24' E 002°04'611.8
2017-Dec-09 22:30N 51°22' E 002°13'611.5
2017-Dec-09 22:00N 51°21' E 002°22'611.7
2017-Dec-09 21:28N 51°23' E 002°32'511.6
2017-Dec-09 21:00N 51°22' E 002°40'611.0
2017-Dec-09 20:26N 51°22' E 002°51'511.8
2017-Dec-09 20:01N 51°23' E 002°59'611.7
2017-Dec-09 19:30N 51°23' E 003°08'611.5
2017-Dec-09 19:01N 51°24' E 003°17'611.5
2017-Dec-09 18:31N 51°24' E 003°26'611.3
2017-Dec-09 18:00N 51°26' E 003°35'4 8.5
2017-Dec-09 17:31N 51°26' E 003°42'510.2
2017-Dec-09 17:00N 51°23' E 003°49'4 7.5
2017-Dec-09 16:31N 51°24' E 003°54'4 8.7
2017-Dec-09 16:01N 51°26' E 004°00'510.7
2017-Dec-09 15:31N 51°22' E 004°06'4 8.6
2017-Dec-09 15:00N 51°23' E 004°13'510.8
2017-Dec-09 14:31N 51°18' E 004°17'3 5.4
2017-Dec-09 14:01N 51°17' E 004°20'0 0.0
2017-Dec-09 13:31N 51°17' E 004°20'0 0.0
2017-Dec-09 13:01N 51°17' E 004°20'1 2.1
2017-Dec-09 12:31N 51°16' E 004°21'2 4.6
2017-Dec-09 12:00N 51°15' E 004°25'0 0.0
2017-Dec-09 11:30N 51°15' E 004°25'0 0.0
2017-Dec-09 11:00N 51°15' E 004°25'0 0.0
2017-Dec-09 10:30N 51°15' E 004°25'0 0.0
2017-Dec-09 10:00N 51°15' E 004°25'0 0.0
2017-Dec-09 09:30N 51°15' E 004°25'0 0.0
2017-Dec-09 09:00N 51°15' E 004°25'0 0.0
2017-Dec-09 08:30N 51°15' E 004°25'0 0.0
2017-Dec-09 08:00N 51°15' E 004°25'0 0.0
2017-Dec-09 07:30N 51°15' E 004°25'0 0.0
2017-Dec-09 07:00N 51°15' E 004°25'0 0.0
2017-Dec-09 06:30N 51°15' E 004°25'0 0.0
2017-Dec-09 06:00N 51°15' E 004°25'0 0.0
2017-Dec-09 05:30N 51°15' E 004°25'0 0.0
2017-Dec-09 05:00N 51°15' E 004°25'0 0.0
2017-Dec-09 04:30N 51°15' E 004°25'0 0.0
2017-Dec-09 04:00N 51°15' E 004°25'0 0.0
2017-Dec-09 03:30N 51°15' E 004°25'0 0.0
2017-Dec-09 03:00N 51°15' E 004°25'0 0.0
2017-Dec-09 02:30N 51°15' E 004°25'0 0.0
2017-Dec-09 02:00N 51°15' E 004°25'0 0.0
2017-Dec-09 01:30N 51°15' E 004°25'0 0.0
2017-Dec-09 01:00N 51°15' E 004°25'0 0.0
2017-Dec-09 00:30N 51°15' E 004°25'0 0.0
2017-Dec-09 00:00N 51°15' E 004°25'0 0.0
2017-Dec-08 23:30N 51°15' E 004°25'0 0.0
2017-Dec-08 23:00N 51°15' E 004°25'0 0.0
2017-Dec-08 22:30N 51°15' E 004°25'0 0.0
2017-Dec-08 22:00N 51°15' E 004°25'0 0.0
2017-Dec-08 21:30N 51°15' E 004°25'0 0.0
2017-Dec-08 21:00N 51°15' E 004°25'0 0.0
2017-Dec-08 20:30N 51°16' E 004°25'0 0.0
2017-Dec-08 20:00N 51°15' E 004°25'0 0.0
2017-Dec-08 19:30N 51°15' E 004°25'0 0.0
2017-Dec-08 19:00N 51°15' E 004°25'0 0.0
2017-Dec-08 18:30N 51°15' E 004°25'0 0.0
2017-Dec-08 18:00N 51°15' E 004°25'0 0.0
2017-Dec-08 17:30N 51°15' E 004°25'0 0.0
2017-Dec-08 17:00N 51°15' E 004°25'0 0.0
2017-Dec-08 16:30N 51°15' E 004°25'0 0.0
2017-Dec-08 16:00N 51°15' E 004°25'0 0.0
2017-Dec-08 15:30N 51°15' E 004°25'0 0.0
2017-Dec-08 15:00N 51°15' E 004°25'0 0.0
2017-Dec-08 14:30N 51°15' E 004°25'0 0.0
2017-Dec-08 14:00N 51°15' E 004°25'0 0.0
2017-Dec-08 13:30N 51°15' E 004°25'0 0.0
2017-Dec-08 13:00N 51°15' E 004°25'0 0.0
2017-Dec-08 12:30N 51°15' E 004°25'0 0.0
2017-Dec-08 12:00N 51°15' E 004°25'0 0.0
2017-Dec-08 11:30N 51°15' E 004°25'0 0.0
2017-Dec-08 11:00N 51°15' E 004°25'0 0.0
2017-Dec-08 10:30N 51°15' E 004°25'0 0.0
2017-Dec-08 10:00N 51°15' E 004°25'0 0.0
2017-Dec-08 09:30N 51°15' E 004°25'0 0.0
2017-Dec-08 09:00N 51°15' E 004°25'0 0.0
2017-Dec-08 08:30N 51°15' E 004°25'0 0.0
2017-Dec-08 08:00N 51°15' E 004°25'0 0.0
2017-Dec-08 07:30N 51°15' E 004°25'0 0.1
2017-Dec-08 07:00N 51°15' E 004°25'0 0.0
2017-Dec-08 06:30N 51°15' E 004°25'0 0.0
2017-Dec-08 06:00N 51°15' E 004°25'0 0.0
2017-Dec-08 05:30N 51°15' E 004°25'0 0.0
2017-Dec-08 05:00N 51°15' E 004°25'0 0.0
2017-Dec-08 04:30N 51°15' E 004°25'0 0.0
2017-Dec-08 04:00N 51°15' E 004°25'0 0.0
2017-Dec-08 03:30N 51°15' E 004°25'0 0.0
2017-Dec-08 03:00N 51°15' E 004°25'0 0.0
2017-Dec-08 02:30N 51°15' E 004°25'0 0.0
2017-Dec-08 02:00N 51°15' E 004°25'0 0.0
2017-Dec-08 01:30N 51°15' E 004°25'0 0.0
2017-Dec-08 01:00N 51°15' E 004°25'0 0.0
2017-Dec-08 00:30N 51°15' E 004°25'0 0.0
2017-Dec-08 00:00N 51°15' E 004°25'0 0.0
2017-Dec-07 23:30N 51°15' E 004°25'0 0.0
2017-Dec-07 23:00N 51°15' E 004°25'0 0.0
2017-Dec-07 22:30N 51°15' E 004°25'0 0.0
2017-Dec-07 22:00N 51°15' E 004°25'0 0.0
2017-Dec-07 21:30N 51°15' E 004°25'0 0.0
2017-Dec-07 21:00N 51°15' E 004°25'0 0.0
2017-Dec-07 20:30N 51°15' E 004°25'0 0.0
2017-Dec-07 20:00N 51°15' E 004°25'0 0.0
2017-Dec-07 19:30N 51°15' E 004°25'0 0.0
2017-Dec-07 19:00N 51°15' E 004°25'0 0.0
2017-Dec-07 18:30N 51°15' E 004°25'0 0.0
2017-Dec-07 18:00N 51°15' E 004°25'0 0.0
2017-Dec-07 17:30N 51°16' E 004°25'0 0.0
2017-Dec-07 17:00N 51°15' E 004°25'0 0.3
2017-Dec-07 16:30N 51°16' E 004°24'1 2.7
2017-Dec-07 16:01N 51°15' E 004°23'2 3.8
2017-Dec-07 15:30N 51°16' E 004°20'2 4.9
2017-Dec-07 15:00N 51°19' E 004°19'2 5.0
2017-Dec-07 14:31N 51°21' E 004°17'0 0.0
2017-Dec-07 14:00N 51°21' E 004°17'0 0.0
2017-Dec-07 13:30N 51°21' E 004°17'0 0.0
2017-Dec-07 13:01N 51°21' E 004°17'1 1.3
2017-Dec-07 12:31N 51°21' E 004°16'4 7.6
2017-Dec-07 12:00N 51°24' E 004°12'4 8.7
2017-Dec-07 11:31N 51°22' E 004°06'4 7.6
2017-Dec-07 11:01N 51°25' E 004°02'3 5.6
2017-Dec-07 10:30N 51°24' E 003°57'4 8.3
2017-Dec-07 10:01N 51°21' E 003°53'4 8.1
2017-Dec-07 09:30N 51°21' E 003°46'4 7.9
2017-Dec-07 09:00N 51°24' E 003°42'4 8.0
2017-Dec-07 08:30N 51°25' E 003°36'4 7.3
2017-Dec-07 08:00N 51°28' E 003°31'4 8.4
2017-Dec-07 07:30N 51°31' E 003°26'4 7.8
2017-Dec-07 06:59N 51°34' E 003°24'4 8.1
2017-Dec-07 06:26N 51°38' E 003°20'3 7.7
2017-Dec-07 06:00N 51°41' E 003°18'4 7.2
2017-Dec-07 05:30N 51°45' E 003°16'2 4.7
2017-Dec-07 04:59N 51°47' E 003°15'6 6.5
2017-Dec-07 04:07N 51°52' E 003°18'1 6.1
2017-Dec-07 03:56N 51°54' E 003°18'8 6.3
2017-Dec-07 02:43N 52°01' E 003°20'15 7.3
2017-Dec-07 00:44N 52°15' E 003°27'2 8.2
2017-Dec-07 00:29N 52°17' E 003°29'6 8.7
2017-Dec-06 23:49N 52°22' E 003°33'3 9.1
2017-Dec-06 23:29N 52°25' E 003°35'4 9.1
2017-Dec-06 23:00N 52°28' E 003°38'5 9.3
2017-Dec-06 22:30N 52°33' E 003°42'5 9.5
2017-Dec-06 21:59N 52°37' E 003°46'5 9.1
2017-Dec-06 21:29N 52°41' E 003°49'5 9.2
2017-Dec-06 20:55N 52°46' E 003°53'  
Track history (hours):
 
Tides and Currents Weather Stations Pressure Air Temp Water Temp Dewpoint Dewpoint Depression Visibility Wind Speed Wind Dir Waves Ship Positions

Vlieland

Last reported at 2017-Dec-11 17:00 UTC. Time now 2017-Dec-12 17:37 UTC.
Position N 50°42' W 005°51'.

Length 111 m; draft 4.3 m.

Type: Ship. MMSI: 244376000.

Date/timePositionNaut miles runAvg speedWind from/ knotsBaromVisibWave heightAir tempDewpointWater temp
2017-Dec-11 17:00N 50°42' W 005°51'5 9.3
2017-Dec-11 16:27N 50°36' W 005°52'13 8.5
2017-Dec-11 14:53N 50°23' W 005°52'3 7.6
2017-Dec-11 14:28N 50°20' W 005°53'4 7.4
2017-Dec-11 14:00N 50°17' W 005°54'13 5.9
2017-Dec-11 11:52N 50°04' W 005°53'30 8.3
2017-Dec-11 08:14N 49°54' W 005°08'1410.1
2017-Dec-11 06:52N 49°56' W 004°47'510.4
2017-Dec-11 06:23N 49°58' W 004°39'410.4
2017-Dec-11 06:00N 49°59' W 004°33'510.5
2017-Dec-11 05:30N 49°60' W 004°25'510.7
2017-Dec-11 05:00N 50°01' W 004°17'1110.8
2017-Dec-11 04:00N 50°03' W 004°01'710.7
2017-Dec-11 03:21N 50°04' W 003°50'410.3
2017-Dec-11 03:01N 50°05' W 003°45'5 9.9
2017-Dec-11 02:31N 50°06' W 003°37'5 9.7
2017-Dec-11 02:00N 50°07' W 003°30'5 9.5
2017-Dec-11 01:30N 50°08' W 003°23'5 9.4
2017-Dec-11 01:00N 50°09' W 003°15'5 9.1
2017-Dec-11 00:31N 50°10' W 003°08'5 9.1
2017-Dec-11 00:00N 50°11' W 003°01'5 9.1
2017-Dec-10 23:30N 50°12' W 002°54'5 9.2
2017-Dec-10 23:00N 50°13' W 002°47'5 9.5
2017-Dec-10 22:28N 50°14' W 002°40'5 9.8
2017-Dec-10 21:55N 50°15' W 002°31'410.2
2017-Dec-10 21:30N 50°15' W 002°25'2510.9
2017-Dec-10 19:15N 50°21' W 001°47'1911.1
2017-Dec-10 17:32N 50°24' W 001°18'15 8.1
2017-Dec-10 15:38N 50°28' W 000°54'2 6.2
2017-Dec-10 15:20N 50°28' W 000°52'6 4.9
2017-Dec-10 14:04N 50°30' W 000°42'3 2.6
2017-Dec-10 13:04N 50°30' W 000°38'0 1.1
2017-Dec-10 12:43N 50°30' W 000°37'0 0.6
2017-Dec-10 12:17N 50°30' W 000°37'1 2.4
2017-Dec-10 11:59N 50°31' W 000°38'2 3.5
2017-Dec-10 11:27N 50°29' W 000°39'1 1.1
2017-Dec-10 10:40N 50°28' W 000°38'0 2.2
2017-Dec-10 10:26N 50°28' W 000°38'1 2.4
2017-Dec-10 09:56N 50°28' W 000°36'2 3.6
2017-Dec-10 09:30N 50°29' W 000°33'3 6.2
2017-Dec-10 09:00N 50°29' W 000°29'4 8.7
2017-Dec-10 08:30N 50°30' W 000°22'5 9.4
2017-Dec-10 08:00N 50°31' W 000°15'510.1
2017-Dec-10 07:30N 50°32' W 000°07'510.8
2017-Dec-10 07:00N 50°33' E 000°01'611.0
2017-Dec-10 06:30N 50°35' E 000°10'611.1
2017-Dec-10 06:00N 50°36' E 000°18'611.0
2017-Dec-10 05:30N 50°38' E 000°26'510.9
2017-Dec-10 05:00N 50°39' E 000°35'510.3
2017-Dec-10 04:30N 50°42' E 000°41'510.3
2017-Dec-10 04:00N 50°45' E 000°48'510.2
2017-Dec-10 03:30N 50°48' E 000°55'510.4
2017-Dec-10 03:00N 50°51' E 001°01'611.3
2017-Dec-10 02:29N 50°55' E 001°09'611.8
2017-Dec-10 02:00N 50°58' E 001°16'612.9
2017-Dec-10 01:30N 51°02' E 001°23'714.2
2017-Dec-10 01:00N 51°07' E 001°32'714.8
2017-Dec-10 00:31N 51°12' E 001°41'714.2
2017-Dec-10 00:01N 51°17' E 001°49'713.5
2017-Dec-09 23:31N 51°22' E 001°56'510.4
2017-Dec-09 23:01N 51°24' E 002°04'611.8
2017-Dec-09 22:30N 51°22' E 002°13'611.5
2017-Dec-09 22:00N 51°21' E 002°22'611.7
2017-Dec-09 21:28N 51°23' E 002°32'511.6
2017-Dec-09 21:00N 51°22' E 002°40'611.0
2017-Dec-09 20:26N 51°22' E 002°51'511.8
2017-Dec-09 20:01N 51°23' E 002°59'611.7
2017-Dec-09 19:30N 51°23' E 003°08'611.5
2017-Dec-09 19:01N 51°24' E 003°17'611.5
2017-Dec-09 18:31N 51°24' E 003°26'611.3
2017-Dec-09 18:00N 51°26' E 003°35'4 8.5
2017-Dec-09 17:31N 51°26' E 003°42'510.2
2017-Dec-09 17:00N 51°23' E 003°49'4 7.5
2017-Dec-09 16:31N 51°24' E 003°54'4 8.7
2017-Dec-09 16:01N 51°26' E 004°00'510.7
2017-Dec-09 15:31N 51°22' E 004°06'4 8.6
2017-Dec-09 15:00N 51°23' E 004°13'510.8
2017-Dec-09 14:31N 51°18' E 004°17'3 5.4
2017-Dec-09 14:01N 51°17' E 004°20'0 0.0
2017-Dec-09 13:31N 51°17' E 004°20'0 0.0
2017-Dec-09 13:01N 51°17' E 004°20'1 2.1
2017-Dec-09 12:31N 51°16' E 004°21'2 4.6
2017-Dec-09 12:00N 51°15' E 004°25'0 0.0
2017-Dec-09 11:30N 51°15' E 004°25'0 0.0
2017-Dec-09 11:00N 51°15' E 004°25'0 0.0
2017-Dec-09 10:30N 51°15' E 004°25'0 0.0
2017-Dec-09 10:00N 51°15' E 004°25'0 0.0
2017-Dec-09 09:30N 51°15' E 004°25'0 0.0
2017-Dec-09 09:00N 51°15' E 004°25'0 0.0
2017-Dec-09 08:30N 51°15' E 004°25'0 0.0
2017-Dec-09 08:00N 51°15' E 004°25'0 0.0
2017-Dec-09 07:30N 51°15' E 004°25'0 0.0
2017-Dec-09 07:00N 51°15' E 004°25'0 0.0
2017-Dec-09 06:30N 51°15' E 004°25'0 0.0
2017-Dec-09 06:00N 51°15' E 004°25'0 0.0
2017-Dec-09 05:30N 51°15' E 004°25'0 0.0
2017-Dec-09 05:00N 51°15' E 004°25'0 0.0
2017-Dec-09 04:30N 51°15' E 004°25'0 0.0
2017-Dec-09 04:00N 51°15' E 004°25'0 0.0
2017-Dec-09 03:30N 51°15' E 004°25'0 0.0
2017-Dec-09 03:00N 51°15' E 004°25'0 0.0
2017-Dec-09 02:30N 51°15' E 004°25'0 0.0
2017-Dec-09 02:00N 51°15' E 004°25'0 0.0
2017-Dec-09 01:30N 51°15' E 004°25'0 0.0
2017-Dec-09 01:00N 51°15' E 004°25'0 0.0
2017-Dec-09 00:30N 51°15' E 004°25'0 0.0
2017-Dec-09 00:00N 51°15' E 004°25'0 0.0
2017-Dec-08 23:30N 51°15' E 004°25'0 0.0
2017-Dec-08 23:00N 51°15' E 004°25'0 0.0
2017-Dec-08 22:30N 51°15' E 004°25'0 0.0
2017-Dec-08 22:00N 51°15' E 004°25'0 0.0
2017-Dec-08 21:30N 51°15' E 004°25'0 0.0
2017-Dec-08 21:00N 51°15' E 004°25'0 0.0
2017-Dec-08 20:30N 51°16' E 004°25'0 0.0
2017-Dec-08 20:00N 51°15' E 004°25'0 0.0
2017-Dec-08 19:30N 51°15' E 004°25'0 0.0
2017-Dec-08 19:00N 51°15' E 004°25'0 0.0
2017-Dec-08 18:30N 51°15' E 004°25'0 0.0
2017-Dec-08 18:00N 51°15' E 004°25'0 0.0
2017-Dec-08 17:30N 51°15' E 004°25'0 0.0
2017-Dec-08 17:00N 51°15' E 004°25'0 0.0
2017-Dec-08 16:30N 51°15' E 004°25'0 0.0
2017-Dec-08 16:00N 51°15' E 004°25'0 0.0
2017-Dec-08 15:30N 51°15' E 004°25'0 0.0
2017-Dec-08 15:00N 51°15' E 004°25'0 0.0
2017-Dec-08 14:30N 51°15' E 004°25'0 0.0
2017-Dec-08 14:00N 51°15' E 004°25'0 0.0
2017-Dec-08 13:30N 51°15' E 004°25'0 0.0
2017-Dec-08 13:00N 51°15' E 004°25'0 0.0
2017-Dec-08 12:30N 51°15' E 004°25'0 0.0
2017-Dec-08 12:00N 51°15' E 004°25'0 0.0
2017-Dec-08 11:30N 51°15' E 004°25'0 0.0
2017-Dec-08 11:00N 51°15' E 004°25'0 0.0
2017-Dec-08 10:30N 51°15' E 004°25'0 0.0
2017-Dec-08 10:00N 51°15' E 004°25'0 0.0
2017-Dec-08 09:30N 51°15' E 004°25'0 0.0
2017-Dec-08 09:00N 51°15' E 004°25'0 0.0
2017-Dec-08 08:30N 51°15' E 004°25'0 0.0
2017-Dec-08 08:00N 51°15' E 004°25'0 0.0
2017-Dec-08 07:30N 51°15' E 004°25'0 0.1
2017-Dec-08 07:00N 51°15' E 004°25'0 0.0
2017-Dec-08 06:30N 51°15' E 004°25'0 0.0
2017-Dec-08 06:00N 51°15' E 004°25'0 0.0
2017-Dec-08 05:30N 51°15' E 004°25'0 0.0
2017-Dec-08 05:00N 51°15' E 004°25'0 0.0
2017-Dec-08 04:30N 51°15' E 004°25'0 0.0
2017-Dec-08 04:00N 51°15' E 004°25'0 0.0
2017-Dec-08 03:30N 51°15' E 004°25'0 0.0
2017-Dec-08 03:00N 51°15' E 004°25'0 0.0
2017-Dec-08 02:30N 51°15' E 004°25'0 0.0
2017-Dec-08 02:00N 51°15' E 004°25'0 0.0
2017-Dec-08 01:30N 51°15' E 004°25'0 0.0
2017-Dec-08 01:00N 51°15' E 004°25'0 0.0
2017-Dec-08 00:30N 51°15' E 004°25'0 0.0
2017-Dec-08 00:00N 51°15' E 004°25'0 0.0
2017-Dec-07 23:30N 51°15' E 004°25'0 0.0
2017-Dec-07 23:00N 51°15' E 004°25'0 0.0
2017-Dec-07 22:30N 51°15' E 004°25'0 0.0
2017-Dec-07 22:00N 51°15' E 004°25'0 0.0
2017-Dec-07 21:30N 51°15' E 004°25'0 0.0
2017-Dec-07 21:00N 51°15' E 004°25'0 0.0
2017-Dec-07 20:30N 51°15' E 004°25'0 0.0
2017-Dec-07 20:00N 51°15' E 004°25'0 0.0
2017-Dec-07 19:30N 51°15' E 004°25'0 0.0
2017-Dec-07 19:00N 51°15' E 004°25'0 0.0
2017-Dec-07 18:30N 51°15' E 004°25'0 0.0
2017-Dec-07 18:00N 51°15' E 004°25'0 0.0
2017-Dec-07 17:30N 51°16' E 004°25'0 0.0
2017-Dec-07 17:00N 51°15' E 004°25'0 0.3
2017-Dec-07 16:30N 51°16' E 004°24'1 2.7
2017-Dec-07 16:01N 51°15' E 004°23'2 3.8
2017-Dec-07 15:30N 51°16' E 004°20'2 4.9
2017-Dec-07 15:00N 51°19' E 004°19'2 5.0
2017-Dec-07 14:31N 51°21' E 004°17'0 0.0
2017-Dec-07 14:00N 51°21' E 004°17'0 0.0
2017-Dec-07 13:30N 51°21' E 004°17'0 0.0
2017-Dec-07 13:01N 51°21' E 004°17'1 1.3
2017-Dec-07 12:31N 51°21' E 004°16'4 7.6
2017-Dec-07 12:00N 51°24' E 004°12'4 8.7
2017-Dec-07 11:31N 51°22' E 004°06'4 7.6
2017-Dec-07 11:01N 51°25' E 004°02'3 5.6
2017-Dec-07 10:30N 51°24' E 003°57'4 8.3
2017-Dec-07 10:01N 51°21' E 003°53'4 8.1
2017-Dec-07 09:30N 51°21' E 003°46'4 7.9
2017-Dec-07 09:00N 51°24' E 003°42'4 8.0
2017-Dec-07 08:30N 51°25' E 003°36'4 7.3
2017-Dec-07 08:00N 51°28' E 003°31'4 8.4
2017-Dec-07 07:30N 51°31' E 003°26'4 7.8
2017-Dec-07 06:59N 51°34' E 003°24'4 8.1
2017-Dec-07 06:26N 51°38' E 003°20'3 7.7
2017-Dec-07 06:00N 51°41' E 003°18'4 7.2
2017-Dec-07 05:30N 51°45' E 003°16'2 4.7
2017-Dec-07 04:59N 51°47' E 003°15'6 6.5
2017-Dec-07 04:07N 51°52' E 003°18'1 6.1
2017-Dec-07 03:56N 51°54' E 003°18'8 6.3
2017-Dec-07 02:43N 52°01' E 003°20'15 7.3
2017-Dec-07 00:44N 52°15' E 003°27'2 8.2
2017-Dec-07 00:29N 52°17' E 003°29'6 8.7
2017-Dec-06 23:49N 52°22' E 003°33'3 9.1
2017-Dec-06 23:29N 52°25' E 003°35'4 9.1
2017-Dec-06 23:00N 52°28' E 003°38'5 9.3
2017-Dec-06 22:30N 52°33' E 003°42'5 9.5
2017-Dec-06 21:59N 52°37' E 003°46'5 9.1
2017-Dec-06 21:29N 52°41' E 003°49'5 9.2
2017-Dec-06 20:55N 52°46' E 003°53'  

Dump ship's entire track history